Chickamauga Observed Data For Previous 48 Hours

Caption
Day and Hour Reservoir Elevation (behind dam)* Tailwater Elevation (below dam)* Average Hourly Discharge*
7/14/2018 2 AM EDT 682.40 632.40 6,965
7/14/2018 3 AM EDT 682.54 632.36 6,772
7/14/2018 4 AM EDT 682.70 632.14 6,810
7/14/2018 5 AM EDT 682.71 632.31 6,868
7/14/2018 6 AM EDT 682.66 632.39 6,813
7/14/2018 7 AM EDT 682.55 632.97 11,510
7/14/2018 8 AM EDT 682.49 633.04 13,733
7/14/2018 9 AM EDT 682.46 632.98 13,727
7/14/2018 10 AM EDT 682.51 632.88 13,797
7/14/2018 11 AM EDT 682.60 632.92 13,778
7/14/2018 12 PM EDT 682.61 632.85 13,711
7/14/2018 1 PM EDT 682.63 632.95 13,715
7/14/2018 2 PM EDT 682.59 633.03 13,698
7/14/2018 3 PM EDT 682.45 633.63 14,264
7/14/2018 4 PM EDT 682.27 635.78 28,577
7/14/2018 5 PM EDT 682.26 637.58 47,874
7/14/2018 6 PM EDT 682.22 637.81 47,841
7/14/2018 7 PM EDT 682.35 637.96 47,622
7/14/2018 8 PM EDT 682.60 635.89 28,088
7/14/2018 9 PM EDT 682.79 633.87 14,265
7/14/2018 10 PM EDT 682.77 633.48 13,919
7/14/2018 11 PM EDT 682.63 633.35 13,798
7/15/2018 12 AM EDT 682.43 633.46 13,824
7/15/2018 1 AM EDT 682.36 633.55 13,704
7/15/2018 2 AM EDT 682.37 633.59 13,766
7/15/2018 3 AM EDT 682.51 633.58 13,781
7/15/2018 4 AM EDT 682.62 633.49 13,720
7/15/2018 5 AM EDT 682.61 633.56 13,715
7/15/2018 6 AM EDT 682.56 633.60 13,825
7/15/2018 7 AM EDT 682.51 633.60 13,910
7/15/2018 8 AM EDT 682.43 633.64 14,027
7/15/2018 9 AM EDT 682.37 633.59 14,026
7/15/2018 10 AM EDT 682.38 633.56 14,085
7/15/2018 11 AM EDT 682.44 633.55 14,006
7/15/2018 12 PM EDT 682.45 633.63 14,023
7/15/2018 1 PM EDT 682.43 633.52 13,788
7/15/2018 2 PM EDT 682.39 633.64 13,792
7/15/2018 3 PM EDT 682.36 633.60 13,807
7/15/2018 4 PM EDT 682.27 634.67 20,780
7/15/2018 5 PM EDT 682.23 634.65 21,104
7/15/2018 6 PM EDT 682.29 634.64 21,088
7/15/2018 7 PM EDT 682.40 634.49 20,986
7/15/2018 8 PM EDT 682.46 634.35 20,976
7/15/2018 9 PM EDT 682.55 633.18 13,936
7/15/2018 10 PM EDT 682.59 632.94 13,745
7/15/2018 11 PM EDT 682.55 632.79 13,695
7/16/2018 12 AM EDT 682.43 632.74 13,660
7/16/2018 1 AM EDT 682.38 632.76 13,552
7/16/2018 2 AM EDT 682.35 632.80 13,545

Elevations are in feet above sea level. Discharges are in cubic feet per second and are reported at the end of the hour.